createdAt,value
2019-05-22T00:01:08.183Z,5.13
2019-05-22T00:03:48.166Z,4.73
2019-05-22T00:06:22.958Z,5.27
2019-05-22T00:08:54.473Z,5.33
2019-05-22T00:11:25.910Z,5.00
2019-05-22T00:13:58.777Z,4.93
2019-05-22T00:16:31.173Z,5.33
2019-05-22T00:19:03.564Z,5.30
2019-05-22T00:21:36.002Z,5.70
2019-05-22T00:24:10.786Z,7.00
2019-05-22T00:26:43.975Z,7.63
2019-05-22T00:29:16.255Z,9.67
2019-05-22T00:31:47.031Z,8.53
2019-05-22T00:34:19.002Z,9.57
2019-05-22T00:36:50.165Z,10.07
2019-05-22T00:39:22.208Z,8.40
2019-05-22T00:41:55.219Z,9.43
2019-05-22T00:44:27.784Z,10.13
2019-05-22T00:47:01.463Z,11.33
2019-05-22T00:49:34.023Z,13.27
2019-05-22T00:52:22.488Z,14.70
2019-05-22T00:55:06.108Z,15.73
2019-05-22T00:57:43.625Z,16.60
2019-05-22T01:00:24.519Z,16.03
2019-05-22T01:02:57.076Z,17.03
2019-05-22T01:05:31.201Z,17.27
2019-05-22T01:08:06.756Z,18.00
2019-05-22T01:10:40.153Z,17.57
2019-05-22T01:13:12.195Z,18.40
2019-05-22T01:15:43.662Z,18.53
2019-05-22T01:18:15.343Z,19.63
2019-05-22T01:20:49.629Z,19.80
2019-05-22T01:23:23.871Z,19.90
2019-05-22T01:25:55.535Z,20.17
2019-05-22T01:28:26.389Z,20.47
2019-05-22T01:31:12.580Z,21.17
2019-05-22T01:33:48.522Z,19.67
2019-05-22T01:36:48.319Z,20.53
2019-05-22T01:39:49.220Z,20.83
2019-05-22T01:42:28.427Z,20.03
2019-05-22T01:45:06.230Z,21.13
2019-05-22T01:48:00.283Z,20.73
2019-05-22T01:50:58.518Z,20.53
2019-05-22T01:53:38.792Z,20.63
2019-05-22T01:56:21.272Z,20.37
2019-05-22T01:58:54.648Z,21.33
2019-05-22T02:01:27.520Z,21.00
2019-05-22T02:04:00.057Z,20.97
2019-05-22T02:06:31.098Z,21.40
2019-05-22T02:09:27.221Z,22.03
2019-05-22T02:12:10.854Z,21.40
2019-05-22T02:14:46.878Z,22.07
2019-05-22T02:17:21.338Z,23.67
2019-05-22T02:19:52.652Z,21.50
2019-05-22T02:22:25.705Z,24.47
2019-05-22T02:24:56.672Z,23.40
2019-05-22T02:27:28.064Z,23.87
2019-05-22T02:29:59.235Z,23.27
2019-05-22T02:32:31.813Z,23.43
2019-05-22T02:35:02.612Z,23.93
2019-05-22T02:37:35.586Z,23.67
2019-05-22T02:40:11.317Z,24.00
2019-05-22T02:42:42.654Z,23.70
2019-05-22T02:45:16.550Z,23.60
2019-05-22T02:47:49.233Z,22.40
2019-05-22T02:50:20.062Z,21.60
2019-05-22T02:52:50.824Z,21.53
2019-05-22T02:55:21.487Z,21.03
2019-05-22T02:57:52.840Z,21.07
2019-05-22T03:00:27.723Z,21.53
2019-05-22T03:02:58.693Z,22.27
2019-05-22T03:05:29.485Z,23.53
2019-05-22T03:08:01.552Z,22.20
2019-05-22T03:10:33.017Z,23.60
2019-05-22T03:13:04.393Z,22.63
2019-05-22T03:15:35.259Z,21.97
2019-05-22T03:18:09.173Z,22.57
2019-05-22T03:20:41.881Z,22.97
2019-05-22T03:23:37.958Z,21.63
2019-05-22T03:26:13.748Z,21.43
2019-05-22T03:28:45.998Z,21.40
2019-05-22T03:31:18.595Z,20.93
2019-05-22T03:33:49.856Z,19.60
2019-05-22T03:36:34.411Z,20.23
2019-05-22T03:39:22.099Z,18.87
2019-05-22T03:41:53.436Z,20.30
2019-05-22T03:44:25.546Z,19.60
2019-05-22T03:46:59.420Z,19.23
2019-05-22T03:49:31.765Z,18.77
2019-05-22T03:52:03.862Z,17.97
2019-05-22T03:54:36.393Z,18.57
2019-05-22T03:57:07.766Z,19.23
2019-05-22T03:59:40.101Z,21.00
2019-05-22T04:02:12.689Z,21.53
2019-05-22T04:04:45.398Z,21.67
2019-05-22T04:07:23.955Z,23.67
2019-05-22T04:09:55.502Z,23.73
2019-05-22T04:12:28.053Z,24.53
2019-05-22T04:15:00.419Z,24.57
2019-05-22T04:17:35.324Z,24.03
2019-05-22T04:20:07.979Z,24.77
2019-05-22T04:22:39.168Z,24.03
2019-05-22T04:25:10.035Z,23.83
2019-05-22T04:27:43.393Z,23.30
2019-05-22T04:30:17.797Z,22.57
2019-05-22T04:32:49.640Z,22.43
2019-05-22T04:35:21.224Z,21.80
2019-05-22T04:37:53.469Z,19.17
2019-05-22T04:40:54.406Z,19.50
2019-05-22T04:43:29.473Z,18.13
2019-05-22T04:46:08.743Z,18.00
2019-05-22T04:48:45.831Z,17.27
2019-05-22T04:51:30.194Z,18.67
2019-05-22T04:54:01.781Z,16.80
2019-05-22T04:56:32.966Z,17.07
2019-05-22T04:59:04.469Z,16.13
2019-05-22T05:01:36.536Z,16.60
2019-05-22T05:04:08.275Z,16.43
2019-05-22T05:06:40.137Z,15.77
2019-05-22T05:09:14.998Z,14.83
2019-05-22T05:11:45.944Z,15.97
2019-05-22T05:14:16.602Z,15.53
2019-05-22T05:16:48.983Z,16.13
2019-05-22T05:19:21.108Z,15.60
2019-05-22T05:21:52.143Z,14.90
2019-05-22T05:24:23.481Z,15.87
2019-05-22T05:26:54.978Z,13.97
2019-05-22T05:29:32.454Z,13.63
2019-05-22T05:32:05.981Z,12.70
2019-05-22T05:34:54.668Z,12.90
2019-05-22T05:37:26.304Z,10.80
2019-05-22T05:40:36.424Z,9.63
2019-05-22T05:43:09.699Z,8.30
2019-05-22T05:45:44.162Z,7.53
2019-05-22T05:48:21.276Z,6.97
2019-05-22T05:51:25.802Z,6.67
2019-05-22T05:54:07.415Z,5.83
2019-05-22T05:56:41.069Z,4.77
2019-05-22T05:59:14.196Z,5.03
2019-05-22T06:01:49.193Z,4.30
2019-05-22T06:04:39.607Z,4.23
2019-05-22T06:07:24.397Z,4.33
2019-05-22T06:10:42.668Z,4.20
2019-05-22T06:13:13.696Z,3.87
2019-05-22T06:16:56.109Z,3.20
2019-05-22T06:19:28.610Z,3.97
2019-05-22T06:22:00.686Z,4.57
2019-05-22T06:25:02.025Z,4.27
2019-05-22T06:27:55.849Z,4.97
2019-05-22T06:30:47.219Z,4.97
2019-05-22T06:33:37.795Z,5.60
2019-05-22T06:36:16.960Z,5.53
2019-05-22T06:39:07.511Z,5.63
2019-05-22T06:41:39.542Z,5.60
2019-05-22T06:44:42.644Z,6.20
2019-05-22T06:47:25.034Z,6.20
2019-05-22T06:49:57.849Z,6.93
2019-05-22T06:52:29.079Z,7.67
2019-05-22T06:55:00.546Z,7.97
2019-05-22T06:57:35.387Z,8.10
2019-05-22T07:00:20.708Z,8.00
2019-05-22T07:02:51.670Z,7.50
2019-05-22T07:05:23.364Z,6.57
2019-05-22T07:07:54.091Z,6.40
2019-05-22T07:10:25.082Z,6.17
2019-05-22T07:12:56.679Z,6.17
2019-05-22T07:15:50.469Z,6.70
2019-05-22T07:18:24.781Z,6.73
2019-05-22T07:20:57.561Z,5.63
2019-05-22T07:23:35.323Z,6.13
2019-05-22T07:26:06.570Z,5.90
2019-05-22T07:28:38.954Z,6.93
2019-05-22T07:31:10.344Z,7.83
2019-05-22T07:33:42.585Z,7.13
2019-05-22T07:36:17.066Z,7.07
2019-05-22T07:38:48.078Z,7.77
2019-05-22T07:41:19.004Z,8.77
2019-05-22T07:43:49.775Z,11.03
2019-05-22T07:46:21.437Z,10.80
2019-05-22T07:48:52.938Z,12.23
2019-05-22T07:51:23.690Z,11.03
2019-05-22T07:53:54.876Z,11.43
2019-05-22T07:56:27.727Z,11.70
2019-05-22T07:59:01.284Z,10.93
2019-05-22T08:01:33.683Z,9.93
2019-05-22T08:04:05.914Z,10.13
2019-05-22T08:06:37.427Z,9.20
2019-05-22T08:09:12.182Z,9.63
2019-05-22T08:11:43.765Z,9.60
2019-05-22T08:14:16.233Z,9.13
2019-05-22T08:16:47.706Z,10.33
2019-05-22T08:19:18.571Z,10.20
2019-05-22T08:21:49.684Z,10.23
2019-05-22T08:24:21.023Z,10.90
2019-05-22T08:26:54.860Z,10.57
2019-05-22T08:29:25.597Z,12.70
2019-05-22T08:31:56.337Z,12.83
2019-05-22T08:34:28.722Z,12.93
2019-05-22T08:37:00.192Z,12.80
2019-05-22T08:39:32.551Z,11.87
2019-05-22T08:42:07.330Z,12.93
2019-05-22T08:44:39.968Z,12.70
2019-05-22T08:47:11.878Z,12.30
2019-05-22T08:49:42.637Z,11.73
2019-05-22T08:52:23.611Z,11.37
2019-05-22T08:54:50.135Z,11.60
2019-05-22T08:57:23.059Z,10.83
2019-05-22T08:59:54.045Z,11.27
2019-05-22T09:02:26.514Z,11.13
2019-05-22T09:04:57.723Z,10.67
2019-05-22T09:07:28.783Z,11.03
2019-05-22T09:09:59.805Z,11.93
2019-05-22T09:12:31.687Z,12.67
2019-05-22T09:15:02.541Z,11.70
2019-05-22T09:17:33.963Z,11.07
2019-05-22T09:20:06.411Z,10.50
2019-05-22T09:22:41.068Z,9.47
2019-05-22T09:25:13.861Z,8.83
2019-05-22T09:27:45.764Z,8.10
2019-05-22T09:30:17.282Z,8.30
2019-05-22T09:32:47.932Z,8.57
2019-05-22T09:35:19.827Z,9.03
2019-05-22T09:37:50.730Z,7.27
2019-05-22T09:40:21.621Z,8.13
2019-05-22T09:42:52.868Z,7.33
2019-05-22T09:45:23.984Z,7.67
2019-05-22T09:47:54.996Z,6.97
2019-05-22T09:50:27.131Z,7.97
2019-05-22T09:52:58.539Z,6.97
2019-05-22T09:55:29.940Z,6.90
2019-05-22T09:58:00.756Z,5.80
2019-05-22T10:00:33.329Z,6.83
2019-05-22T10:03:04.910Z,5.20
2019-05-22T10:05:36.755Z,6.47
2019-05-22T10:08:07.635Z,5.93
2019-05-22T10:10:40.812Z,5.70
2019-05-22T10:13:12.161Z,6.13
2019-05-22T10:15:43.571Z,5.73
2019-05-22T10:18:15.805Z,6.30
2019-05-22T10:20:46.851Z,7.30
2019-05-22T10:23:18.169Z,7.40
2019-05-22T10:25:48.944Z,7.43
2019-05-22T10:28:19.691Z,7.10
2019-05-22T10:30:51.360Z,6.80
2019-05-22T10:33:22.468Z,6.40
2019-05-22T10:35:54.952Z,5.53
2019-05-22T10:38:25.822Z,6.03
2019-05-22T10:40:59.395Z,4.80
2019-05-22T10:43:29.522Z,5.93
2019-05-22T10:46:00.594Z,5.00
2019-05-22T10:48:31.616Z,6.23
2019-05-22T10:51:02.528Z,5.77
2019-05-22T10:53:34.472Z,5.80
2019-05-22T10:56:05.917Z,5.50
2019-05-22T10:58:37.471Z,6.10
2019-05-22T11:01:11.253Z,5.53
2019-05-22T11:03:43.769Z,5.77
2019-05-22T11:06:15.428Z,5.83
2019-05-22T11:08:46.177Z,5.10
2019-05-22T11:11:18.083Z,5.60
2019-05-22T11:14:00.539Z,5.27
2019-05-22T11:16:22.333Z,5.80
2019-05-22T11:18:53.570Z,5.23
2019-05-22T11:21:24.314Z,5.00
2019-05-22T11:23:57.578Z,4.73
2019-05-22T11:26:29.244Z,5.30
2019-05-22T11:29:00.484Z,5.47
2019-05-22T11:31:31.967Z,5.50
2019-05-22T11:34:02.933Z,5.23
2019-05-22T11:36:34.023Z,5.03
2019-05-22T11:39:06.898Z,4.77
2019-05-22T11:41:38.327Z,4.20
2019-05-22T11:44:09.418Z,4.37
2019-05-22T11:46:40.940Z,5.10
2019-05-22T11:49:12.809Z,4.80
2019-05-22T11:51:44.653Z,5.43
2019-05-22T11:54:17.031Z,5.90
2019-05-22T11:56:47.792Z,5.67
2019-05-22T11:59:18.907Z,4.53
2019-05-22T12:01:50.961Z,5.43
2019-05-22T12:04:21.839Z,4.07
2019-05-22T12:06:53.793Z,4.67
2019-05-22T12:09:28.026Z,4.57
2019-05-22T12:11:59.391Z,4.77
2019-05-22T12:14:30.388Z,4.93
2019-05-22T12:17:03.884Z,5.63
2019-05-22T12:19:34.844Z,4.60
2019-05-22T12:22:05.783Z,5.50
2019-05-22T12:24:37.813Z,5.40
2019-05-22T12:27:09.709Z,5.80
2019-05-22T12:29:41.502Z,6.10
2019-05-22T12:32:14.247Z,5.60
2019-05-22T12:34:45.779Z,6.47
2019-05-22T12:37:17.190Z,5.83
2019-05-22T12:39:48.578Z,6.20
2019-05-22T12:42:19.567Z,5.90
2019-05-22T12:44:51.318Z,5.67
2019-05-22T12:47:24.901Z,5.83
2019-05-22T12:49:56.571Z,5.97
2019-05-22T12:52:29.281Z,6.40
2019-05-22T12:55:00.859Z,5.90
2019-05-22T12:57:31.806Z,5.80
2019-05-22T13:00:03.262Z,6.07
2019-05-22T13:02:42.134Z,6.10
2019-05-22T13:05:14.413Z,5.80
2019-05-22T13:07:45.546Z,6.13
2019-05-22T13:10:18.908Z,6.47
2019-05-22T13:12:49.565Z,5.20
2019-05-22T13:15:23.047Z,4.80
2019-05-22T13:17:55.788Z,5.10
2019-05-22T13:20:42.106Z,4.97
2019-05-22T13:23:09.382Z,5.00
2019-05-22T13:25:42.646Z,5.00
2019-05-22T13:28:17.166Z,5.43
2019-05-22T13:30:56.544Z,4.80
2019-05-22T13:33:29.377Z,4.77
2019-05-22T13:36:01.008Z,4.87
2019-05-22T13:38:31.978Z,4.57
2019-05-22T13:41:04.030Z,4.63
2019-05-22T13:43:36.029Z,5.37
2019-05-22T13:46:07.406Z,6.03
2019-05-22T13:48:39.247Z,5.40
2019-05-22T13:51:12.537Z,5.93
2019-05-22T13:53:45.162Z,6.50
2019-05-22T13:56:17.534Z,6.07
2019-05-22T13:58:49.586Z,6.70
2019-05-22T14:01:21.764Z,6.73
2019-05-22T14:03:53.083Z,6.57
2019-05-22T14:06:24.440Z,6.37
2019-05-22T14:08:55.783Z,6.10
2019-05-22T14:11:31.410Z,6.73
2019-05-22T14:14:03.652Z,7.33
2019-05-22T14:16:48.131Z,7.33
2019-05-22T14:19:07.302Z,7.47
2019-05-22T14:21:38.573Z,8.07
2019-05-22T14:24:10.256Z,7.17
2019-05-22T14:26:41.270Z,6.10
2019-05-22T14:29:12.262Z,6.57
2019-05-22T14:31:43.100Z,6.10
2019-05-22T14:34:14.545Z,6.23
2019-05-22T14:36:46.931Z,6.37
2019-05-22T14:39:19.090Z,6.43
2019-05-22T14:41:50.287Z,6.63
2019-05-22T14:44:21.387Z,6.63
2019-05-22T14:46:52.449Z,6.67
2019-05-22T14:49:23.508Z,8.03
2019-05-22T14:51:54.829Z,8.20
2019-05-22T14:54:26.358Z,8.13
2019-05-22T14:56:57.610Z,8.10
2019-05-22T14:59:28.733Z,8.57
2019-05-22T15:02:00.172Z,8.47
2019-05-22T15:04:33.102Z,8.13
2019-05-22T15:07:04.188Z,7.90
2019-05-22T15:09:35.329Z,8.17
2019-05-22T15:12:06.114Z,8.63
2019-05-22T15:14:36.818Z,8.70
2019-05-22T15:17:07.483Z,8.63
2019-05-22T15:19:38.498Z,8.60
2019-05-22T15:22:09.840Z,9.00
2019-05-22T15:24:41.369Z,9.43
2019-05-22T15:27:13.293Z,8.70
2019-05-22T15:29:44.736Z,8.80
2019-05-22T15:32:16.949Z,9.20
2019-05-22T15:34:48.288Z,9.93
2019-05-22T15:37:21.779Z,9.67
2019-05-22T15:39:53.790Z,10.07
2019-05-22T15:42:38.979Z,9.80
2019-05-22T15:45:18.331Z,10.20
2019-05-22T15:47:55.652Z,9.10
2019-05-22T15:50:27.675Z,9.70
2019-05-22T15:53:05.113Z,9.37
2019-05-22T15:55:36.840Z,9.37
2019-05-22T15:58:08.933Z,8.70
2019-05-22T16:00:51.024Z,10.27
2019-05-22T16:03:31.453Z,9.77
2019-05-22T16:06:13.420Z,10.20
2019-05-22T16:08:44.684Z,10.30
2019-05-22T16:11:18.042Z,9.90
2019-05-22T16:13:50.407Z,10.83
2019-05-22T16:16:24.485Z,9.23
2019-05-22T16:19:00.907Z,10.13
2019-05-22T16:21:33.611Z,10.03
2019-05-22T16:24:07.532Z,10.13
2019-05-22T16:26:39.353Z,10.30
2019-05-22T16:29:11.258Z,10.10
2019-05-22T16:31:44.217Z,10.93
2019-05-22T16:34:16.671Z,11.13
2019-05-22T16:36:48.129Z,11.40
2019-05-22T16:39:20.595Z,11.67
2019-05-22T16:41:54.017Z,11.00
2019-05-22T16:44:25.454Z,11.10
2019-05-22T16:46:58.969Z,11.87
2019-05-22T16:49:29.905Z,12.60
2019-05-22T16:52:04.052Z,12.20
2019-05-22T16:54:35.262Z,12.40
2019-05-22T16:57:07.793Z,12.40
2019-05-22T16:59:41.557Z,12.97
2019-05-22T17:02:16.128Z,13.07
2019-05-22T17:04:47.889Z,14.27
2019-05-22T17:07:19.377Z,14.53
2019-05-22T17:09:53.907Z,13.77
2019-05-22T17:12:26.581Z,14.57
2019-05-22T17:14:58.820Z,14.43
2019-05-22T17:17:30.379Z,14.97
2019-05-22T17:20:02.657Z,16.17
2019-05-22T17:22:33.365Z,15.10
2019-05-22T17:25:04.950Z,15.47
2019-05-22T17:27:36.789Z,15.60
2019-05-22T17:30:09.988Z,14.80
2019-05-22T17:32:41.713Z,16.23
2019-05-22T17:35:14.672Z,14.93
2019-05-22T17:37:46.663Z,15.70
2019-05-22T17:40:20.543Z,15.33
2019-05-22T17:42:54.674Z,15.10
2019-05-22T17:45:28.518Z,15.27
2019-05-22T17:48:03.416Z,14.77
2019-05-22T17:50:35.343Z,14.70
2019-05-22T17:53:06.442Z,14.90
2019-05-22T17:55:38.475Z,14.00
2019-05-22T17:58:09.174Z,14.63
2019-05-22T18:00:43.499Z,14.67
2019-05-22T18:03:15.907Z,15.43
2019-05-22T18:05:47.323Z,14.87
2019-05-22T18:08:18.616Z,15.67
2019-05-22T18:10:51.262Z,15.07
2019-05-22T18:13:22.355Z,15.77
2019-05-22T18:15:53.351Z,15.30
2019-05-22T18:18:25.093Z,16.00
2019-05-22T18:20:55.808Z,15.37
2019-05-22T18:23:27.111Z,14.43
2019-05-22T18:25:58.693Z,14.77
2019-05-22T18:28:29.591Z,16.43
2019-05-22T18:31:01.020Z,15.23
2019-05-22T18:33:31.737Z,15.47
2019-05-22T18:36:02.986Z,17.43
2019-05-22T18:38:33.740Z,16.03
2019-05-22T18:41:04.656Z,15.87
2019-05-22T18:43:35.935Z,15.33
2019-05-22T18:46:06.742Z,15.17
2019-05-22T18:48:38.677Z,14.53
2019-05-22T18:51:10.402Z,14.87
2019-05-22T18:53:41.645Z,13.53
2019-05-22T18:56:13.038Z,14.13
2019-05-22T18:58:45.255Z,13.40
2019-05-22T19:01:17.785Z,13.37
2019-05-22T19:03:50.238Z,12.13
2019-05-22T19:06:30.353Z,12.30
2019-05-22T19:08:56.966Z,13.00
2019-05-22T19:11:34.423Z,12.30
2019-05-22T19:14:17.241Z,11.90
2019-05-22T19:16:51.953Z,11.50
2019-05-22T19:19:23.166Z,11.67
2019-05-22T19:21:54.336Z,12.10
2019-05-22T19:24:25.140Z,11.20
2019-05-22T19:26:56.362Z,12.07
2019-05-22T19:29:27.030Z,11.67
2019-05-22T19:31:58.146Z,11.23
2019-05-22T19:34:28.890Z,11.83
2019-05-22T19:36:59.688Z,11.60
2019-05-22T19:39:31.421Z,10.83
2019-05-22T19:42:05.657Z,10.73
2019-05-22T19:44:37.141Z,11.73
2019-05-22T19:47:15.696Z,11.70
2019-05-22T19:49:47.568Z,12.03
2019-05-22T19:52:22.635Z,12.20
2019-05-22T19:54:54.606Z,10.77
2019-05-22T19:57:25.720Z,10.77
2019-05-22T19:59:57.297Z,11.00
2019-05-22T20:02:28.918Z,10.57
2019-05-22T20:05:00.571Z,10.60
2019-05-22T20:07:33.142Z,10.80
2019-05-22T20:10:05.391Z,11.00
2019-05-22T20:12:37.599Z,11.07
2019-05-22T20:15:10.438Z,9.77
2019-05-22T20:17:41.496Z,10.93
2019-05-22T20:20:15.693Z,10.67
2019-05-22T20:22:46.605Z,10.20
2019-05-22T20:25:19.170Z,11.50
2019-05-22T20:27:50.071Z,10.30
2019-05-22T20:30:25.000Z,10.83
2019-05-22T20:32:55.851Z,10.67
2019-05-22T20:35:27.249Z,10.60
2019-05-22T20:38:00.450Z,10.67
2019-05-22T20:40:31.156Z,11.17
2019-05-22T20:43:02.232Z,10.63
2019-05-22T20:45:33.708Z,11.20
2019-05-22T20:48:17.641Z,10.47
2019-05-22T20:50:49.728Z,10.90
2019-05-22T20:53:24.469Z,9.83
2019-05-22T20:55:55.422Z,10.80
2019-05-22T20:58:28.329Z,10.73
2019-05-22T21:01:00.835Z,11.77
2019-05-22T21:03:31.846Z,10.60
2019-05-22T21:06:06.993Z,10.53
2019-05-22T21:08:40.337Z,9.73
2019-05-22T21:11:12.931Z,9.37
2019-05-22T21:13:45.645Z,9.63
2019-05-22T21:16:17.550Z,9.77
2019-05-22T21:18:51.968Z,8.67
2019-05-22T21:21:26.060Z,9.37
2019-05-22T21:24:09.839Z,7.80
2019-05-22T21:26:32.677Z,8.33
2019-05-22T21:29:04.586Z,8.60
2019-05-22T21:31:36.086Z,8.57
2019-05-22T21:34:07.648Z,7.30
2019-05-22T21:36:40.554Z,7.20
2019-05-22T21:39:16.322Z,7.47
2019-05-22T21:41:48.482Z,7.40
2019-05-22T21:44:24.440Z,6.53
2019-05-22T21:46:59.231Z,7.67
2019-05-22T21:49:32.547Z,6.73
2019-05-22T21:52:06.831Z,6.77
2019-05-22T21:54:38.753Z,5.90
2019-05-22T21:57:10.261Z,6.20
2019-05-22T21:59:41.694Z,5.87
2019-05-22T22:02:21.049Z,6.13
2019-05-22T22:04:53.379Z,5.43
2019-05-22T22:07:24.950Z,6.27
2019-05-22T22:09:58.211Z,5.57
2019-05-22T22:12:29.908Z,5.93
2019-05-22T22:15:01.059Z,5.30
2019-05-22T22:17:34.313Z,5.60
2019-05-22T22:20:08.465Z,5.50
2019-05-22T22:22:40.282Z,5.83
2019-05-22T22:25:17.201Z,5.40
2019-05-22T22:27:48.264Z,5.67
2019-05-22T22:30:32.792Z,5.10
2019-05-22T22:33:09.464Z,4.73
2019-05-22T22:35:41.307Z,5.03
2019-05-22T22:38:12.823Z,5.17
2019-05-22T22:40:52.485Z,4.70
2019-05-22T22:43:28.078Z,4.83
2019-05-22T22:46:07.001Z,5.30
2019-05-22T22:48:40.559Z,4.97
2019-05-22T22:51:14.064Z,4.97
2019-05-22T22:53:45.937Z,4.37
2019-05-22T22:56:19.443Z,5.10
2019-05-22T22:58:50.407Z,4.37
2019-05-22T23:01:30.507Z,4.37
2019-05-22T23:04:05.667Z,4.77
2019-05-22T23:06:37.148Z,4.17
2019-05-22T23:09:10.972Z,3.77
2019-05-22T23:11:43.600Z,3.87
2019-05-22T23:14:15.550Z,4.87
2019-05-22T23:16:47.129Z,3.97
2019-05-22T23:19:50.209Z,3.97
2019-05-22T23:22:27.407Z,4.20
2019-05-22T23:25:00.566Z,3.57
2019-05-22T23:27:31.533Z,3.80
2019-05-22T23:30:02.885Z,3.97
2019-05-22T23:32:33.615Z,3.37
2019-05-22T23:35:05.535Z,3.43
2019-05-22T23:37:36.232Z,3.10
2019-05-22T23:40:11.066Z,3.77
2019-05-22T23:42:44.446Z,3.80
2019-05-22T23:45:22.108Z,4.20
2019-05-22T23:48:12.034Z,3.60
2019-05-22T23:50:43.392Z,3.77
2019-05-22T23:53:16.312Z,3.30
2019-05-22T23:55:49.036Z,3.23
2019-05-22T23:58:23.159Z,3.00
